sensor_id;sensor_type;location;lat;lon;timestamp;P1;durP1;ratioP1;P2;durP2;ratioP2
20348;SDS011;10332;50.208;18.988;2024-01-11T00:00:52;133.17;;;52.07;;
20348;SDS011;10332;50.208;18.988;2024-01-11T00:03:36;141.93;;;53.90;;
20348;SDS011;10332;50.208;18.988;2024-01-11T00:06:03;126.67;;;49.93;;
20348;SDS011;10332;50.208;18.988;2024-01-11T00:08:31;142.63;;;53.73;;
20348;SDS011;10332;50.208;18.988;2024-01-11T00:10:59;124.77;;;49.83;;
20348;SDS011;10332;50.208;18.988;2024-01-11T00:13:26;128.27;;;49.87;;
20348;SDS011;10332;50.208;18.988;2024-01-11T00:15:54;113.97;;;45.20;;
20348;SDS011;10332;50.208;18.988;2024-01-11T00:18:21;118.53;;;47.10;;
20348;SDS011;10332;50.208;18.988;2024-01-11T00:20:49;111.00;;;46.80;;
20348;SDS011;10332;50.208;18.988;2024-01-11T00:23:16;117.50;;;46.97;;
20348;SDS011;10332;50.208;18.988;2024-01-11T00:25:43;141.60;;;53.07;;
20348;SDS011;10332;50.208;18.988;2024-01-11T00:28:11;116.67;;;47.07;;
20348;SDS011;10332;50.208;18.988;2024-01-11T00:30:38;140.07;;;53.77;;
20348;SDS011;10332;50.208;18.988;2024-01-11T00:33:06;131.77;;;51.67;;
20348;SDS011;10332;50.208;18.988;2024-01-11T00:35:33;123.93;;;49.33;;
20348;SDS011;10332;50.208;18.988;2024-01-11T00:38:01;119.60;;;46.80;;
20348;SDS011;10332;50.208;18.988;2024-01-11T00:40:29;171.83;;;70.50;;
20348;SDS011;10332;50.208;18.988;2024-01-11T00:42:56;173.10;;;71.60;;
20348;SDS011;10332;50.208;18.988;2024-01-11T00:45:23;164.37;;;69.37;;
20348;SDS011;10332;50.208;18.988;2024-01-11T00:47:51;154.27;;;63.13;;
20348;SDS011;10332;50.208;18.988;2024-01-11T00:50:18;152.50;;;63.77;;
20348;SDS011;10332;50.208;18.988;2024-01-11T00:52:46;160.60;;;65.10;;
20348;SDS011;10332;50.208;18.988;2024-01-11T00:55:13;154.77;;;59.73;;
20348;SDS011;10332;50.208;18.988;2024-01-11T00:57:43;124.80;;;51.73;;
20348;SDS011;10332;50.208;18.988;2024-01-11T01:00:10;125.67;;;51.63;;
20348;SDS011;10332;50.208;18.988;2024-01-11T01:02:41;151.73;;;62.13;;
20348;SDS011;10332;50.208;18.988;2024-01-11T01:05:10;155.67;;;61.47;;
20348;SDS011;10332;50.208;18.988;2024-01-11T01:07:38;158.30;;;60.30;;
20348;SDS011;10332;50.208;18.988;2024-01-11T01:10:05;150.10;;;55.20;;
20348;SDS011;10332;50.208;18.988;2024-01-11T01:12:33;197.13;;;78.63;;
20348;SDS011;10332;50.208;18.988;2024-01-11T01:15:00;188.33;;;75.03;;
20348;SDS011;10332;50.208;18.988;2024-01-11T01:17:27;225.40;;;89.40;;
20348;SDS011;10332;50.208;18.988;2024-01-11T01:19:55;215.03;;;88.23;;
20348;SDS011;10332;50.208;18.988;2024-01-11T01:22:23;203.23;;;84.73;;
20348;SDS011;10332;50.208;18.988;2024-01-11T01:24:50;218.53;;;83.10;;
20348;SDS011;10332;50.208;18.988;2024-01-11T01:27:17;199.83;;;81.30;;
20348;SDS011;10332;50.208;18.988;2024-01-11T01:29:44;223.43;;;91.00;;
20348;SDS011;10332;50.208;18.988;2024-01-11T01:32:13;232.77;;;94.07;;
20348;SDS011;10332;50.208;18.988;2024-01-11T01:34:40;217.93;;;85.80;;
20348;SDS011;10332;50.208;18.988;2024-01-11T01:37:07;205.53;;;77.57;;
20348;SDS011;10332;50.208;18.988;2024-01-11T01:39:37;181.73;;;73.03;;
20348;SDS011;10332;50.208;18.988;2024-01-11T01:42:05;179.60;;;71.73;;
20348;SDS011;10332;50.208;18.988;2024-01-11T01:44:33;178.53;;;69.50;;
20348;SDS011;10332;50.208;18.988;2024-01-11T01:47:02;170.80;;;67.67;;
20348;SDS011;10332;50.208;18.988;2024-01-11T01:49:30;171.20;;;67.63;;
20348;SDS011;10332;50.208;18.988;2024-01-11T01:51:58;169.97;;;62.37;;
20348;SDS011;10332;50.208;18.988;2024-01-11T01:54:25;162.03;;;63.53;;
20348;SDS011;10332;50.208;18.988;2024-01-11T01:56:54;162.83;;;63.33;;
20348;SDS011;10332;50.208;18.988;2024-01-11T01:59:22;156.63;;;62.10;;
20348;SDS011;10332;50.208;18.988;2024-01-11T02:01:51;167.67;;;63.93;;
20348;SDS011;10332;50.208;18.988;2024-01-11T02:04:19;160.73;;;59.87;;
20348;SDS011;10332;50.208;18.988;2024-01-11T02:06:46;163.37;;;60.27;;
20348;SDS011;10332;50.208;18.988;2024-01-11T02:09:14;152.60;;;56.93;;
20348;SDS011;10332;50.208;18.988;2024-01-11T02:11:44;140.23;;;56.37;;
20348;SDS011;10332;50.208;18.988;2024-01-11T02:14:11;152.23;;;58.97;;
20348;SDS011;10332;50.208;18.988;2024-01-11T02:16:39;133.33;;;52.23;;
20348;SDS011;10332;50.208;18.988;2024-01-11T02:19:06;136.53;;;54.20;;
20348;SDS011;10332;50.208;18.988;2024-01-11T02:21:37;137.60;;;54.90;;
20348;SDS011;10332;50.208;18.988;2024-01-11T02:24:05;121.47;;;48.83;;
20348;SDS011;10332;50.208;18.988;2024-01-11T02:26:33;123.73;;;47.90;;
20348;SDS011;10332;50.208;18.988;2024-01-11T02:29:01;115.97;;;44.87;;
20348;SDS011;10332;50.208;18.988;2024-01-11T02:31:29;123.83;;;49.33;;
20348;SDS011;10332;50.208;18.988;2024-01-11T02:33:56;129.47;;;50.00;;
20348;SDS011;10332;50.208;18.988;2024-01-11T02:36:24;124.73;;;48.00;;
20348;SDS011;10332;50.208;18.988;2024-01-11T02:38:52;109.80;;;44.77;;
20348;SDS011;10332;50.208;18.988;2024-01-11T02:41:20;108.23;;;45.37;;
20348;SDS011;10332;50.208;18.988;2024-01-11T02:43:49;111.67;;;44.73;;
20348;SDS011;10332;50.208;18.988;2024-01-11T02:46:17;98.00;;;42.77;;
20348;SDS011;10332;50.208;18.988;2024-01-11T02:48:44;101.50;;;42.77;;
20348;SDS011;10332;50.208;18.988;2024-01-11T02:51:12;97.20;;;41.57;;
20348;SDS011;10332;50.208;18.988;2024-01-11T02:53:39;105.80;;;43.43;;
20348;SDS011;10332;50.208;18.988;2024-01-11T02:56:07;99.10;;;42.67;;
20348;SDS011;10332;50.208;18.988;2024-01-11T02:58:34;102.90;;;44.60;;
20348;SDS011;10332;50.208;18.988;2024-01-11T03:01:01;118.77;;;47.60;;
20348;SDS011;10332;50.208;18.988;2024-01-11T03:03:29;104.30;;;45.10;;
20348;SDS011;10332;50.208;18.988;2024-01-11T03:05:56;100.97;;;41.50;;
20348;SDS011;10332;50.208;18.988;2024-01-11T03:08:24;98.53;;;43.03;;
20348;SDS011;10332;50.208;18.988;2024-01-11T03:10:52;95.47;;;40.80;;
20348;SDS011;10332;50.208;18.988;2024-01-11T03:13:20;103.83;;;44.17;;
20348;SDS011;10332;50.208;18.988;2024-01-11T03:15:47;100.60;;;42.07;;
20348;SDS011;10332;50.208;18.988;2024-01-11T03:18:14;85.67;;;35.80;;
20348;SDS011;10332;50.208;18.988;2024-01-11T03:20:42;85.80;;;36.90;;
20348;SDS011;10332;50.208;18.988;2024-01-11T03:23:09;88.90;;;38.53;;
20348;SDS011;10332;50.208;18.988;2024-01-11T03:25:37;85.67;;;37.43;;
20348;SDS011;10332;50.208;18.988;2024-01-11T03:28:04;86.60;;;35.70;;
20348;SDS011;10332;50.208;18.988;2024-01-11T03:30:32;82.70;;;37.80;;
20348;SDS011;10332;50.208;18.988;2024-01-11T03:32:59;89.37;;;37.40;;
20348;SDS011;10332;50.208;18.988;2024-01-11T03:35:27;77.13;;;34.90;;
20348;SDS011;10332;50.208;18.988;2024-01-11T03:37:54;85.53;;;35.83;;
20348;SDS011;10332;50.208;18.988;2024-01-11T03:40:21;92.87;;;38.30;;
20348;SDS011;10332;50.208;18.988;2024-01-11T03:42:49;89.53;;;36.97;;
20348;SDS011;10332;50.208;18.988;2024-01-11T03:45:19;91.83;;;38.53;;
20348;SDS011;10332;50.208;18.988;2024-01-11T03:47:47;85.97;;;37.23;;
20348;SDS011;10332;50.208;18.988;2024-01-11T03:50:14;89.67;;;37.10;;
20348;SDS011;10332;50.208;18.988;2024-01-11T03:52:42;87.77;;;33.83;;
20348;SDS011;10332;50.208;18.988;2024-01-11T03:55:09;83.43;;;35.10;;
20348;SDS011;10332;50.208;18.988;2024-01-11T03:57:37;87.50;;;34.97;;
20348;SDS011;10332;50.208;18.988;2024-01-11T04:00:04;99.37;;;39.43;;
20348;SDS011;10332;50.208;18.988;2024-01-11T04:02:37;91.57;;;38.33;;
20348;SDS011;10332;50.208;18.988;2024-01-11T04:05:04;93.80;;;37.37;;
20348;SDS011;10332;50.208;18.988;2024-01-11T04:07:32;102.60;;;41.50;;
20348;SDS011;10332;50.208;18.988;2024-01-11T04:09:59;107.03;;;41.80;;
20348;SDS011;10332;50.208;18.988;2024-01-11T04:12:27;105.20;;;44.33;;
20348;SDS011;10332;50.208;18.988;2024-01-11T04:14:54;114.27;;;47.20;;
20348;SDS011;10332;50.208;18.988;2024-01-11T04:17:21;91.33;;;40.10;;
20348;SDS011;10332;50.208;18.988;2024-01-11T04:19:49;83.33;;;37.07;;
20348;SDS011;10332;50.208;18.988;2024-01-11T04:22:17;87.37;;;36.47;;
20348;SDS011;10332;50.208;18.988;2024-01-11T04:24:44;83.93;;;35.67;;
20348;SDS011;10332;50.208;18.988;2024-01-11T04:27:11;92.63;;;37.03;;
20348;SDS011;10332;50.208;18.988;2024-01-11T04:29:39;79.30;;;34.17;;
20348;SDS011;10332;50.208;18.988;2024-01-11T04:32:06;81.10;;;35.57;;
20348;SDS011;10332;50.208;18.988;2024-01-11T04:34:33;73.57;;;32.40;;
20348;SDS011;10332;50.208;18.988;2024-01-11T04:37:01;66.87;;;28.60;;
20348;SDS011;10332;50.208;18.988;2024-01-11T04:39:28;75.43;;;33.60;;
20348;SDS011;10332;50.208;18.988;2024-01-11T04:41:56;82.53;;;35.00;;
20348;SDS011;10332;50.208;18.988;2024-01-11T04:44:23;88.73;;;39.40;;
20348;SDS011;10332;50.208;18.988;2024-01-11T04:46:53;93.67;;;41.50;;
20348;SDS011;10332;50.208;18.988;2024-01-11T04:49:21;99.03;;;43.33;;
20348;SDS011;10332;50.208;18.988;2024-01-11T04:51:48;100.73;;;43.63;;
20348;SDS011;10332;50.208;18.988;2024-01-11T04:54:15;98.23;;;41.97;;
20348;SDS011;10332;50.208;18.988;2024-01-11T04:56:43;92.77;;;40.10;;
20348;SDS011;10332;50.208;18.988;2024-01-11T04:59:10;91.20;;;40.13;;
20348;SDS011;10332;50.208;18.988;2024-01-11T05:01:37;88.87;;;37.20;;
20348;SDS011;10332;50.208;18.988;2024-01-11T05:04:06;101.47;;;42.20;;
20348;SDS011;10332;50.208;18.988;2024-01-11T05:06:33;122.40;;;50.00;;
20348;SDS011;10332;50.208;18.988;2024-01-11T05:09:01;135.47;;;55.07;;
20348;SDS011;10332;50.208;18.988;2024-01-11T05:11:28;150.33;;;61.17;;
20348;SDS011;10332;50.208;18.988;2024-01-11T05:13:56;156.87;;;64.97;;
20348;SDS011;10332;50.208;18.988;2024-01-11T05:16:24;125.80;;;53.13;;
20348;SDS011;10332;50.208;18.988;2024-01-11T05:18:53;96.50;;;40.43;;
20348;SDS011;10332;50.208;18.988;2024-01-11T05:21:24;92.20;;;40.63;;
20348;SDS011;10332;50.208;18.988;2024-01-11T05:23:53;92.83;;;37.87;;
20348;SDS011;10332;50.208;18.988;2024-01-11T05:26:20;84.03;;;36.47;;
20348;SDS011;10332;50.208;18.988;2024-01-11T05:28:48;78.17;;;34.77;;
20348;SDS011;10332;50.208;18.988;2024-01-11T05:31:15;85.70;;;34.57;;
20348;SDS011;10332;50.208;18.988;2024-01-11T05:33:44;82.47;;;34.17;;
20348;SDS011;10332;50.208;18.988;2024-01-11T05:36:14;79.23;;;34.93;;
20348;SDS011;10332;50.208;18.988;2024-01-11T05:38:41;84.80;;;34.37;;
20348;SDS011;10332;50.208;18.988;2024-01-11T05:41:09;93.20;;;40.97;;
20348;SDS011;10332;50.208;18.988;2024-01-11T05:43:37;105.43;;;46.70;;
20348;SDS011;10332;50.208;18.988;2024-01-11T05:46:06;109.00;;;44.37;;
20348;SDS011;10332;50.208;18.988;2024-01-11T05:48:34;108.60;;;44.97;;
20348;SDS011;10332;50.208;18.988;2024-01-11T05:51:01;113.87;;;46.70;;
20348;SDS011;10332;50.208;18.988;2024-01-11T05:53:29;118.30;;;48.43;;
20348;SDS011;10332;50.208;18.988;2024-01-11T05:55:56;114.50;;;45.17;;
20348;SDS011;10332;50.208;18.988;2024-01-11T05:58:24;107.90;;;42.00;;
20348;SDS011;10332;50.208;18.988;2024-01-11T06:00:51;99.93;;;41.83;;
20348;SDS011;10332;50.208;18.988;2024-01-11T06:03:19;83.83;;;36.07;;
20348;SDS011;10332;50.208;18.988;2024-01-11T06:05:46;93.60;;;35.87;;
20348;SDS011;10332;50.208;18.988;2024-01-11T06:08:14;73.83;;;31.60;;
20348;SDS011;10332;50.208;18.988;2024-01-11T06:10:41;68.77;;;31.73;;
20348;SDS011;10332;50.208;18.988;2024-01-11T06:13:08;67.97;;;30.63;;
20348;SDS011;10332;50.208;18.988;2024-01-11T06:15:36;90.33;;;40.27;;
20348;SDS011;10332;50.208;18.988;2024-01-11T06:18:03;87.40;;;36.47;;
20348;SDS011;10332;50.208;18.988;2024-01-11T06:20:31;111.97;;;44.50;;
20348;SDS011;10332;50.208;18.988;2024-01-11T06:22:59;118.50;;;47.53;;
20348;SDS011;10332;50.208;18.988;2024-01-11T06:25:26;114.03;;;44.97;;
20348;SDS011;10332;50.208;18.988;2024-01-11T06:27:54;106.27;;;45.10;;
20348;SDS011;10332;50.208;18.988;2024-01-11T06:30:22;101.67;;;37.90;;
20348;SDS011;10332;50.208;18.988;2024-01-11T06:32:49;96.07;;;39.00;;
20348;SDS011;10332;50.208;18.988;2024-01-11T06:35:17;91.20;;;35.27;;
20348;SDS011;10332;50.208;18.988;2024-01-11T06:37:44;79.93;;;32.70;;
20348;SDS011;10332;50.208;18.988;2024-01-11T06:40:12;78.60;;;31.43;;
20348;SDS011;10332;50.208;18.988;2024-01-11T06:42:39;67.93;;;26.90;;
20348;SDS011;10332;50.208;18.988;2024-01-11T06:45:08;69.27;;;28.20;;
20348;SDS011;10332;50.208;18.988;2024-01-11T06:47:36;66.27;;;26.90;;
20348;SDS011;10332;50.208;18.988;2024-01-11T06:50:04;61.43;;;25.40;;
20348;SDS011;10332;50.208;18.988;2024-01-11T06:52:32;58.37;;;25.13;;
20348;SDS011;10332;50.208;18.988;2024-01-11T06:54:59;58.97;;;27.10;;
20348;SDS011;10332;50.208;18.988;2024-01-11T06:57:27;61.83;;;27.23;;
20348;SDS011;10332;50.208;18.988;2024-01-11T06:59:55;65.47;;;28.00;;
20348;SDS011;10332;50.208;18.988;2024-01-11T07:02:23;64.50;;;28.63;;
20348;SDS011;10332;50.208;18.988;2024-01-11T07:04:50;64.43;;;28.97;;
20348;SDS011;10332;50.208;18.988;2024-01-11T07:07:18;66.97;;;27.73;;
20348;SDS011;10332;50.208;18.988;2024-01-11T07:09:45;62.73;;;27.60;;
20348;SDS011;10332;50.208;18.988;2024-01-11T07:12:13;69.23;;;28.70;;
20348;SDS011;10332;50.208;18.988;2024-01-11T07:14:42;69.33;;;27.37;;
20348;SDS011;10332;50.208;18.988;2024-01-11T07:17:09;65.67;;;28.73;;
20348;SDS011;10332;50.208;18.988;2024-01-11T07:19:38;69.03;;;28.97;;
20348;SDS011;10332;50.208;18.988;2024-01-11T07:22:07;78.00;;;30.83;;
20348;SDS011;10332;50.208;18.988;2024-01-11T07:24:35;70.53;;;30.97;;
20348;SDS011;10332;50.208;18.988;2024-01-11T07:27:05;71.30;;;28.83;;
20348;SDS011;10332;50.208;18.988;2024-01-11T07:29:33;71.40;;;29.23;;
20348;SDS011;10332;50.208;18.988;2024-01-11T07:32:01;68.70;;;28.80;;
20348;SDS011;10332;50.208;18.988;2024-01-11T07:34:31;69.40;;;30.57;;
20348;SDS011;10332;50.208;18.988;2024-01-11T07:37:00;70.37;;;29.47;;
20348;SDS011;10332;50.208;18.988;2024-01-11T07:39:27;71.90;;;29.37;;
20348;SDS011;10332;50.208;18.988;2024-01-11T07:41:54;68.13;;;28.77;;
20348;SDS011;10332;50.208;18.988;2024-01-11T07:44:22;72.30;;;30.50;;
20348;SDS011;10332;50.208;18.988;2024-01-11T07:46:49;72.97;;;34.03;;
20348;SDS011;10332;50.208;18.988;2024-01-11T07:49:21;81.23;;;34.23;;
20348;SDS011;10332;50.208;18.988;2024-01-11T07:51:49;86.37;;;38.07;;
20348;SDS011;10332;50.208;18.988;2024-01-11T07:54:16;81.63;;;36.37;;
20348;SDS011;10332;50.208;18.988;2024-01-11T07:56:43;70.13;;;30.97;;
20348;SDS011;10332;50.208;18.988;2024-01-11T07:59:11;65.67;;;29.53;;
20348;SDS011;10332;50.208;18.988;2024-01-11T08:01:42;66.90;;;29.23;;
20348;SDS011;10332;50.208;18.988;2024-01-11T08:04:09;57.47;;;25.90;;
20348;SDS011;10332;50.208;18.988;2024-01-11T08:06:37;59.20;;;25.30;;
20348;SDS011;10332;50.208;18.988;2024-01-11T08:09:04;55.50;;;24.13;;
20348;SDS011;10332;50.208;18.988;2024-01-11T08:11:33;61.70;;;25.23;;
20348;SDS011;10332;50.208;18.988;2024-01-11T08:14:04;59.20;;;24.03;;
20348;SDS011;10332;50.208;18.988;2024-01-11T08:16:33;54.07;;;21.90;;
20348;SDS011;10332;50.208;18.988;2024-01-11T08:19:00;67.13;;;25.87;;
20348;SDS011;10332;50.208;18.988;2024-01-11T08:21:28;65.57;;;24.83;;
20348;SDS011;10332;50.208;18.988;2024-01-11T08:23:56;63.73;;;25.33;;
20348;SDS011;10332;50.208;18.988;2024-01-11T08:26:29;61.77;;;25.23;;
20348;SDS011;10332;50.208;18.988;2024-01-11T08:28:59;64.00;;;27.23;;
20348;SDS011;10332;50.208;18.988;2024-01-11T08:31:26;65.13;;;25.97;;
20348;SDS011;10332;50.208;18.988;2024-01-11T08:33:54;53.03;;;22.33;;
20348;SDS011;10332;50.208;18.988;2024-01-11T08:36:21;51.13;;;23.50;;
20348;SDS011;10332;50.208;18.988;2024-01-11T08:38:49;41.17;;;19.20;;
20348;SDS011;10332;50.208;18.988;2024-01-11T08:41:16;43.50;;;18.57;;
20348;SDS011;10332;50.208;18.988;2024-01-11T08:43:44;35.00;;;16.43;;
20348;SDS011;10332;50.208;18.988;2024-01-11T08:46:11;31.50;;;13.87;;
20348;SDS011;10332;50.208;18.988;2024-01-11T08:48:38;27.30;;;12.70;;
20348;SDS011;10332;50.208;18.988;2024-01-11T08:51:06;31.03;;;13.90;;
20348;SDS011;10332;50.208;18.988;2024-01-11T08:53:33;26.73;;;12.03;;
20348;SDS011;10332;50.208;18.988;2024-01-11T08:56:01;26.47;;;13.30;;
20348;SDS011;10332;50.208;18.988;2024-01-11T08:58:28;30.00;;;14.00;;
20348;SDS011;10332;50.208;18.988;2024-01-11T09:00:56;33.10;;;14.53;;
20348;SDS011;10332;50.208;18.988;2024-01-11T09:03:23;27.20;;;12.73;;
20348;SDS011;10332;50.208;18.988;2024-01-11T09:05:51;30.53;;;13.87;;
20348;SDS011;10332;50.208;18.988;2024-01-11T09:08:18;31.97;;;13.07;;
20348;SDS011;10332;50.208;18.988;2024-01-11T09:10:46;30.43;;;13.50;;
20348;SDS011;10332;50.208;18.988;2024-01-11T09:13:13;29.80;;;12.83;;
20348;SDS011;10332;50.208;18.988;2024-01-11T09:15:42;28.00;;;13.13;;
20348;SDS011;10332;50.208;18.988;2024-01-11T09:18:10;26.73;;;12.47;;
20348;SDS011;10332;50.208;18.988;2024-01-11T09:20:37;28.70;;;13.37;;
20348;SDS011;10332;50.208;18.988;2024-01-11T09:23:05;29.43;;;13.00;;
20348;SDS011;10332;50.208;18.988;2024-01-11T09:25:32;28.73;;;14.20;;
20348;SDS011;10332;50.208;18.988;2024-01-11T09:28:00;30.53;;;13.93;;
20348;SDS011;10332;50.208;18.988;2024-01-11T09:30:27;32.57;;;15.00;;
20348;SDS011;10332;50.208;18.988;2024-01-11T09:32:55;32.13;;;16.70;;
20348;SDS011;10332;50.208;18.988;2024-01-11T09:35:23;34.70;;;15.83;;
20348;SDS011;10332;50.208;18.988;2024-01-11T09:37:50;34.47;;;16.63;;
20348;SDS011;10332;50.208;18.988;2024-01-11T09:40:18;35.30;;;15.97;;
20348;SDS011;10332;50.208;18.988;2024-01-11T09:42:45;35.43;;;16.30;;
20348;SDS011;10332;50.208;18.988;2024-01-11T09:45:13;38.07;;;16.97;;
20348;SDS011;10332;50.208;18.988;2024-01-11T09:47:44;34.60;;;16.83;;
20348;SDS011;10332;50.208;18.988;2024-01-11T09:50:14;39.43;;;17.80;;
20348;SDS011;10332;50.208;18.988;2024-01-11T09:52:48;36.43;;;17.50;;
20348;SDS011;10332;50.208;18.988;2024-01-11T09:55:17;41.20;;;18.00;;
20348;SDS011;10332;50.208;18.988;2024-01-11T09:57:45;37.93;;;18.30;;
20348;SDS011;10332;50.208;18.988;2024-01-11T10:00:22;41.73;;;18.87;;
20348;SDS011;10332;50.208;18.988;2024-01-11T10:02:50;45.93;;;20.67;;
20348;SDS011;10332;50.208;18.988;2024-01-11T10:05:19;43.37;;;19.80;;
20348;SDS011;10332;50.208;18.988;2024-01-11T10:07:46;40.93;;;19.60;;
20348;SDS011;10332;50.208;18.988;2024-01-11T10:10:13;44.53;;;20.07;;
20348;SDS011;10332;50.208;18.988;2024-01-11T10:12:44;38.33;;;19.00;;
20348;SDS011;10332;50.208;18.988;2024-01-11T10:15:14;37.30;;;17.43;;
20348;SDS011;10332;50.208;18.988;2024-01-11T10:17:42;43.50;;;20.20;;
20348;SDS011;10332;50.208;18.988;2024-01-11T10:20:14;43.07;;;19.17;;
20348;SDS011;10332;50.208;18.988;2024-01-11T10:22:43;37.20;;;17.37;;
20348;SDS011;10332;50.208;18.988;2024-01-11T10:25:12;31.80;;;14.90;;
20348;SDS011;10332;50.208;18.988;2024-01-11T10:27:41;34.57;;;15.70;;
20348;SDS011;10332;50.208;18.988;2024-01-11T10:30:11;39.57;;;15.63;;
20348;SDS011;10332;50.208;18.988;2024-01-11T10:32:40;37.43;;;16.50;;
20348;SDS011;10332;50.208;18.988;2024-01-11T10:35:08;35.37;;;14.63;;
20348;SDS011;10332;50.208;18.988;2024-01-11T10:37:36;30.30;;;14.83;;
20348;SDS011;10332;50.208;18.988;2024-01-11T10:40:08;32.47;;;15.33;;
20348;SDS011;10332;50.208;18.988;2024-01-11T10:42:41;34.80;;;16.43;;
20348;SDS011;10332;50.208;18.988;2024-01-11T10:45:13;33.57;;;15.63;;
20348;SDS011;10332;50.208;18.988;2024-01-11T10:47:50;28.20;;;14.27;;
20348;SDS011;10332;50.208;18.988;2024-01-11T10:50:31;32.80;;;14.60;;
20348;SDS011;10332;50.208;18.988;2024-01-11T10:55:43;32.07;;;14.27;;
20348;SDS011;10332;50.208;18.988;2024-01-11T10:58:11;30.17;;;14.20;;
20348;SDS011;10332;50.208;18.988;2024-01-11T11:00:40;34.43;;;14.67;;
20348;SDS011;10332;50.208;18.988;2024-01-11T11:03:07;37.17;;;15.23;;
20348;SDS011;10332;50.208;18.988;2024-01-11T11:05:37;37.33;;;15.47;;
20348;SDS011;10332;50.208;18.988;2024-01-11T11:08:05;36.67;;;16.00;;
20348;SDS011;10332;50.208;18.988;2024-01-11T11:10:34;34.60;;;15.60;;
20348;SDS011;10332;50.208;18.988;2024-01-11T11:13:02;41.97;;;17.83;;
20348;SDS011;10332;50.208;18.988;2024-01-11T11:15:31;42.10;;;19.03;;
20348;SDS011;10332;50.208;18.988;2024-01-11T11:17:59;40.93;;;17.33;;
20348;SDS011;10332;50.208;18.988;2024-01-11T11:20:28;37.83;;;17.80;;
20348;SDS011;10332;50.208;18.988;2024-01-11T11:23:05;39.03;;;16.87;;
20348;SDS011;10332;50.208;18.988;2024-01-11T11:25:34;45.47;;;18.33;;
20348;SDS011;10332;50.208;18.988;2024-01-11T11:28:01;38.50;;;18.10;;
20348;SDS011;10332;50.208;18.988;2024-01-11T11:30:41;39.47;;;18.40;;
20348;SDS011;10332;50.208;18.988;2024-01-11T11:35:48;38.77;;;19.07;;
20348;SDS011;10332;50.208;18.988;2024-01-11T11:38:18;37.03;;;18.83;;
20348;SDS011;10332;50.208;18.988;2024-01-11T11:40:52;36.27;;;18.10;;
20348;SDS011;10332;50.208;18.988;2024-01-11T11:43:22;41.55;;;20.38;;
20348;SDS011;10332;50.208;18.988;2024-01-11T11:45:50;39.35;;;19.40;;
20348;SDS011;10332;50.208;18.988;2024-01-11T11:53:46;44.22;;;20.85;;
20348;SDS011;10332;50.208;18.988;2024-01-11T11:56:19;45.83;;;20.85;;
20348;SDS011;10332;50.208;18.988;2024-01-11T11:58:48;46.58;;;23.13;;
20348;SDS011;10332;50.208;18.988;2024-01-11T12:01:17;49.97;;;22.70;;
20348;SDS011;10332;50.208;18.988;2024-01-11T12:03:45;45.80;;;21.70;;
20348;SDS011;10332;50.208;18.988;2024-01-11T12:06:17;48.88;;;21.95;;
20348;SDS011;10332;50.208;18.988;2024-01-11T12:08:47;48.75;;;23.25;;
20348;SDS011;10332;50.208;18.988;2024-01-11T12:11:19;50.85;;;23.48;;
20348;SDS011;10332;50.208;18.988;2024-01-11T12:13:48;51.92;;;22.98;;
20348;SDS011;10332;50.208;18.988;2024-01-11T12:16:16;49.58;;;23.70;;
20348;SDS011;10332;50.208;18.988;2024-01-11T12:18:44;55.00;;;23.83;;
20348;SDS011;10332;50.208;18.988;2024-01-11T12:21:12;54.80;;;23.67;;
20348;SDS011;10332;50.208;18.988;2024-01-11T12:23:40;53.38;;;23.42;;
20348;SDS011;10332;50.208;18.988;2024-01-11T12:26:09;49.97;;;22.83;;
20348;SDS011;10332;50.208;18.988;2024-01-11T12:28:41;48.55;;;22.52;;
20348;SDS011;10332;50.208;18.988;2024-01-11T12:31:09;51.05;;;23.45;;
20348;SDS011;10332;50.208;18.988;2024-01-11T12:33:37;48.00;;;23.67;;
20348;SDS011;10332;50.208;18.988;2024-01-11T12:36:08;47.63;;;23.27;;
20348;SDS011;10332;50.208;18.988;2024-01-11T12:38:36;50.85;;;23.30;;
20348;SDS011;10332;50.208;18.988;2024-01-11T12:41:04;48.78;;;22.67;;
20348;SDS011;10332;50.208;18.988;2024-01-11T12:43:32;45.58;;;21.48;;
20348;SDS011;10332;50.208;18.988;2024-01-11T12:46:01;49.33;;;21.87;;
20348;SDS011;10332;50.208;18.988;2024-01-11T12:48:29;45.70;;;21.50;;
20348;SDS011;10332;50.208;18.988;2024-01-11T12:50:57;45.73;;;22.17;;
20348;SDS011;10332;50.208;18.988;2024-01-11T12:53:45;44.22;;;20.75;;
20348;SDS011;10332;50.208;18.988;2024-01-11T12:56:15;51.93;;;24.10;;
20348;SDS011;10332;50.208;18.988;2024-01-11T12:58:43;47.15;;;21.45;;
20348;SDS011;10332;50.208;18.988;2024-01-11T13:01:13;41.93;;;21.93;;
20348;SDS011;10332;50.208;18.988;2024-01-11T13:03:43;47.77;;;21.93;;
20348;SDS011;10332;50.208;18.988;2024-01-11T13:06:14;45.77;;;21.63;;
20348;SDS011;10332;50.208;18.988;2024-01-11T13:08:42;48.97;;;23.40;;
20348;SDS011;10332;50.208;18.988;2024-01-11T13:11:10;42.60;;;20.43;;
20348;SDS011;10332;50.208;18.988;2024-01-11T13:13:40;51.67;;;22.80;;
20348;SDS011;10332;50.208;18.988;2024-01-11T13:16:08;55.15;;;23.30;;
20348;SDS011;10332;50.208;18.988;2024-01-11T13:18:41;54.07;;;23.73;;
20348;SDS011;10332;50.208;18.988;2024-01-11T13:21:09;47.93;;;23.53;;
20348;SDS011;10332;50.208;18.988;2024-01-11T13:23:36;50.67;;;23.63;;
20348;SDS011;10332;50.208;18.988;2024-01-11T13:26:05;54.00;;;24.73;;
20348;SDS011;10332;50.208;18.988;2024-01-11T13:28:33;57.40;;;26.07;;
20348;SDS011;10332;50.208;18.988;2024-01-11T13:31:01;52.83;;;23.57;;
20348;SDS011;10332;50.208;18.988;2024-01-11T13:33:29;54.77;;;25.70;;
20348;SDS011;10332;50.208;18.988;2024-01-11T13:35:57;56.40;;;26.63;;
20348;SDS011;10332;50.208;18.988;2024-01-11T13:38:24;58.30;;;27.77;;
20348;SDS011;10332;50.208;18.988;2024-01-11T13:40:52;58.30;;;25.77;;
20348;SDS011;10332;50.208;18.988;2024-01-11T13:43:19;53.17;;;25.27;;
20348;SDS011;10332;50.208;18.988;2024-01-11T13:45:47;50.73;;;24.27;;
20348;SDS011;10332;50.208;18.988;2024-01-11T13:48:14;53.90;;;25.37;;
20348;SDS011;10332;50.208;18.988;2024-01-11T13:50:42;57.97;;;26.70;;
20348;SDS011;10332;50.208;18.988;2024-01-11T13:53:09;57.63;;;24.50;;
20348;SDS011;10332;50.208;18.988;2024-01-11T13:55:37;59.93;;;27.20;;
20348;SDS011;10332;50.208;18.988;2024-01-11T13:58:06;56.00;;;24.97;;
20348;SDS011;10332;50.208;18.988;2024-01-11T14:00:34;53.63;;;23.93;;
20348;SDS011;10332;50.208;18.988;2024-01-11T14:03:02;53.43;;;25.80;;
20348;SDS011;10332;50.208;18.988;2024-01-11T14:05:32;58.93;;;25.03;;
20348;SDS011;10332;50.208;18.988;2024-01-11T14:08:00;58.90;;;26.50;;
20348;SDS011;10332;50.208;18.988;2024-01-11T14:10:32;58.13;;;26.77;;
20348;SDS011;10332;50.208;18.988;2024-01-11T14:13:00;57.77;;;26.03;;
20348;SDS011;10332;50.208;18.988;2024-01-11T14:15:29;60.67;;;26.57;;
20348;SDS011;10332;50.208;18.988;2024-01-11T14:17:57;61.77;;;27.37;;
20348;SDS011;10332;50.208;18.988;2024-01-11T14:20:25;67.77;;;26.90;;
20348;SDS011;10332;50.208;18.988;2024-01-11T14:22:54;69.30;;;31.47;;